Terminal Aerodrome Forecast
Issued by NWS Spokane, WA

Home | Current Version | Previous Version | Text Only | Print | Product List | Glossary On
Versions: 1 2 3 4 5 6 7 8 9 10 11 12 13 14 15 16 17
000
FTUS46 KOTX 201739
TAFLWS
TAF
KLWS 201739Z 2018/2118 VRB04KT P6SM -RA BKN045 BKN060
     FM201900 29008KT P6SM -SHRA BKN035 OVC050
     FM210500 16006KT P6SM VCSH BKN015 BKN060
     FM210900 16003KT P6SM SCT020 OVC040
     FM211500 09004KT P6SM BKN035 BKN050=

USA.gov is the U.S. government's official web portal to all federal, state and local government web resources and services.